Time;durP1;ratioP1;P1;durP2;ratioP2;P2;SDS_P1;SDS_P2;PMS_P1;PMS_P2;Temp;Humidity;BMP_temperature;BMP_pressure;BME280_temperature;BME280_humidity;BME280_pressure;Samples;Min_cycle;Max_cycle;Signal;HPM_P1;HPM_P2
2023/10/19 00:01:15;;;;;;;2.17;1.20;;;19.50;55.00;;;;;;5040633;28;20033;-67
2023/10/19 00:03:41;;;;;;;2.38;1.10;;;19.40;55.00;;;;;;5041812;28;20021;-67
2023/10/19 00:06:07;;;;;;;1.88;1.17;;;19.40;55.00;;;;;;5042084;28;20029;-66
2023/10/19 00:08:42;;;;;;;2.47;1.05;;;19.40;55.00;;;;;;5041526;28;20029;-67
2023/10/19 00:11:09;;;;;;;1.83;1.10;;;19.40;55.00;;;;;;5043381;28;20025;-66
2023/10/19 00:13:36;;;;;;;2.00;1.15;;;19.40;55.00;;;;;;5043314;28;20044;-66
2023/10/19 00:16:07;;;;;;;2.22;1.10;;;19.40;55.00;;;;;;5041905;28;20112;-66
2023/10/19 00:18:34;;;;;;;2.50;1.52;;;19.40;55.00;;;;;;5041566;28;20079;-66
2023/10/19 00:21:10;;;;;;;2.13;1.00;;;19.50;55.00;;;;;;5038889;28;20120;-69
2023/10/19 00:23:37;;;;;;;1.70;1.20;;;19.40;55.00;;;;;;5039677;28;20021;-69
2023/10/19 00:26:15;;;;;;;2.20;1.05;;;19.40;55.00;;;;;;5041943;28;20068;-69
2023/10/19 00:28:40;;;;;;;2.45;1.13;;;19.40;55.00;;;;;;5041343;28;20144;-70
2023/10/19 00:31:10;;;;;;;2.85;1.10;;;19.40;55.00;;;;;;5040209;28;20060;-69
2023/10/19 00:33:39;;;;;;;2.40;1.10;;;19.40;55.00;;;;;;5040009;28;20040;-69
2023/10/19 00:36:08;;;;;;;1.67;1.00;;;19.40;55.00;;;;;;5040762;28;20037;-69
2023/10/19 00:41:21;;;;;;;1.98;1.08;;;19.40;55.00;;;;;;5040619;28;20034;-69
2023/10/19 00:43:49;;;;;;;1.30;0.90;;;19.40;55.00;;;;;;5040866;28;20422;-69
2023/10/19 00:48:58;;;;;;;1.73;1.10;;;19.40;55.00;;;;;;5040326;28;20025;-69
2023/10/19 00:54:05;;;;;;;2.13;1.00;;;19.40;55.00;;;;;;5039450;28;20036;-69
2023/10/19 00:56:34;;;;;;;1.17;0.90;;;19.40;55.00;;;;;;5039892;28;20064;-69
2023/10/19 00:59:12;;;;;;;0.98;0.80;;;19.40;55.00;;;;;;5040000;28;20315;-71
2023/10/19 01:01:44;;;;;;;2.15;1.00;;;19.40;55.00;;;;;;5042152;28;20140;-66
2023/10/19 01:04:33;;;;;;;1.70;1.00;;;19.40;55.00;;;;;;5039630;28;20036;-66
2023/10/19 01:07:21;;;;;;;1.90;1.10;;;19.40;55.00;;;;;;5041022;28;20090;-66
2023/10/19 01:09:47;;;;;;;1.30;0.80;;;19.40;55.00;;;;;;5041497;28;20032;-66
2023/10/19 01:12:25;;;;;;;1.67;1.00;;;19.40;55.00;;;;;;5040620;28;20490;-69
2023/10/19 01:15:13;;;;;;;1.63;1.05;;;19.40;55.00;;;;;;5040249;28;20487;-69
2023/10/19 01:17:53;;;;;;;1.75;1.00;;;19.40;55.00;;;;;;5041977;28;20032;-69
2023/10/19 01:21:06;;;;;;;2.63;1.10;;;19.40;55.00;;;;;;5041757;28;20045;-69
2023/10/19 01:28:24;;;;;;;1.48;1.02;;;19.40;55.00;;;;;;5039452;28;20485;-69
2023/10/19 01:30:53;;;;;;;1.17;0.80;;;19.40;55.00;;;;;;5039829;28;20537;-69
2023/10/19 01:33:21;;;;;;;1.48;1.00;;;19.40;55.00;;;;;;5041787;28;20017;-66
2023/10/19 01:38:31;;;;;;;1.85;1.10;;;19.40;55.00;;;;;;5038537;28;20059;-68
2023/10/19 01:40:59;;;;;;;1.90;0.90;;;19.40;55.00;;;;;;5037786;28;20033;-67
2023/10/19 01:43:30;;;;;;;1.27;0.90;;;19.30;55.40;;;;;;5040843;28;20022;-67
2023/10/19 01:45:56;;;;;;;1.63;0.90;;;19.40;55.00;;;;;;5037575;28;20414;-67
2023/10/19 01:48:28;;;;;;;1.30;0.80;;;19.40;55.00;;;;;;5041545;28;20017;-67
2023/10/19 01:50:53;;;;;;;1.05;0.82;;;19.40;55.00;;;;;;5039195;28;20390;-67
2023/10/19 01:53:25;;;;;;;1.35;0.93;;;19.40;55.00;;;;;;5040274;28;20051;-67
2023/10/19 01:55:57;;;;;;;2.28;1.00;;;19.40;55.00;;;;;;5039038;28;20548;-67
2023/10/19 01:58:25;;;;;;;1.42;0.93;;;19.30;54.90;;;;;;5040495;28;20108;-67
2023/10/19 02:00:54;;;;;;;1.80;0.85;;;19.30;54.90;;;;;;5040328;28;20036;-67
2023/10/19 02:03:22;;;;;;;1.63;1.00;;;19.30;54.90;;;;;;5038793;28;20021;-67
2023/10/19 02:05:50;;;;;;;1.52;0.85;;;19.30;54.90;;;;;;5038809;28;20031;-67
2023/10/19 02:08:17;;;;;;;1.60;0.90;;;19.30;54.90;;;;;;5038202;28;20473;-67
2023/10/19 02:10:47;;;;;;;1.98;1.00;;;19.40;55.00;;;;;;5039830;28;20096;-67
2023/10/19 02:13:15;;;;;;;1.60;0.90;;;19.30;54.90;;;;;;5039615;28;20040;-67
2023/10/19 02:15:43;;;;;;;1.17;0.80;;;19.40;55.00;;;;;;5037867;28;20032;-66
2023/10/19 02:18:10;;;;;;;1.27;0.85;;;19.30;54.90;;;;;;5038255;28;20071;-67
2023/10/19 02:20:40;;;;;;;1.60;0.90;;;19.30;54.90;;;;;;5037405;28;20028;-67
2023/10/19 02:23:06;;;;;;;1.50;0.80;;;19.40;54.90;;;;;;5037976;28;20052;-67
2023/10/19 02:25:36;;;;;;;1.92;0.88;;;19.30;54.90;;;;;;5038835;28;20361;-67
2023/10/19 02:28:06;;;;;;;1.13;0.80;;;19.30;54.90;;;;;;5038645;28;20032;-67
2023/10/19 02:30:33;;;;;;;1.48;0.90;;;19.40;54.90;;;;;;5041654;28;20097;-67
2023/10/19 02:33:00;;;;;;;1.20;0.90;;;19.40;54.90;;;;;;5039616;28;20472;-67
2023/10/19 02:35:27;;;;;;;1.60;0.90;;;19.30;54.80;;;;;;5037486;28;20079;-67
2023/10/19 02:37:53;;;;;;;1.30;0.80;;;19.40;54.90;;;;;;5037118;28;20026;-67
2023/10/19 02:40:19;;;;;;;1.35;1.00;;;19.40;54.90;;;;;;5038781;28;20056;-67
2023/10/19 02:42:47;;;;;;;1.08;0.80;;;19.30;54.80;;;;;;5040816;28;20080;-67
2023/10/19 02:45:15;;;;;;;1.77;0.90;;;19.40;54.90;;;;;;5037945;28;20392;-67
2023/10/19 02:47:43;;;;;;;1.20;0.90;;;19.40;55.00;;;;;;5038250;28;20037;-67
2023/10/19 02:50:13;;;;;;;1.67;0.90;;;19.30;54.90;;;;;;5037501;28;20033;-66
2023/10/19 02:52:38;;;;;;;;;;;19.40;54.90;;;;;;5039600;28;20484;-66
2023/10/19 02:55:04;;;;;;;1.58;0.80;;;19.30;54.90;;;;;;5038136;28;19909;-66
2023/10/19 02:57:31;;;;;;;1.30;0.85;;;19.30;54.80;;;;;;5039424;28;20036;-66
2023/10/19 02:59:58;;;;;;;1.50;0.85;;;19.30;54.90;;;;;;5038129;28;20496;-67
2023/10/19 03:02:25;;;;;;;1.55;0.90;;;19.30;54.90;;;;;;5039614;28;20427;-67
2023/10/19 03:04:53;;;;;;;1.48;0.93;;;19.30;54.90;;;;;;5038591;28;20021;-67
2023/10/19 03:07:18;;;;;;;1.17;0.82;;;19.30;54.90;;;;;;5038439;28;20556;-67
2023/10/19 03:09:53;;;;;;;1.85;0.80;;;19.30;54.90;;;;;;5038140;28;20104;-66
2023/10/19 03:12:19;;;;;;;1.40;0.90;;;19.30;54.90;;;;;;5036044;28;20032;-66
2023/10/19 03:14:47;;;;;;;1.35;0.80;;;19.30;54.80;;;;;;5040890;28;20068;-67
2023/10/19 03:17:14;;;;;;;1.30;0.90;;;19.30;54.80;;;;;;5037932;28;20026;-67
2023/10/19 03:19:39;;;;;;;1.38;0.88;;;19.30;55.40;;;;;;5037615;28;20033;-67
2023/10/19 03:22:09;;;;;;;2.20;1.10;;;19.30;54.80;;;;;;5038538;28;20485;-63
2023/10/19 03:24:40;;;;;;;1.38;0.85;;;19.30;55.40;;;;;;5036531;28;20025;-62
2023/10/19 03:27:23;;;;;;;1.58;1.10;;;19.30;54.90;;;;;;5037211;28;20037;-62
2023/10/19 03:29:55;;;;;;;1.55;1.00;;;19.30;54.90;;;;;;5037708;28;20028;-62
2023/10/19 03:32:26;;;;;;;1.48;0.90;;;19.30;54.80;;;;;;5037550;28;20128;-66
2023/10/19 03:34:55;;;;;;;1.30;0.90;;;19.30;54.90;;;;;;5037683;28;20052;-66
2023/10/19 03:37:22;;;;;;;1.50;0.85;;;19.30;54.90;;;;;;5037733;28;20076;-67
2023/10/19 03:39:48;;;;;;;2.08;1.00;;;19.30;54.90;;;;;;5035236;28;20373;-66
2023/10/19 03:42:14;;;;;;;1.08;0.90;;;19.30;54.90;;;;;;5038710;28;20060;-67
2023/10/19 03:47:12;;;;;;;1.20;0.80;;;19.30;54.90;;;;;;5037542;28;20112;-67
2023/10/19 03:49:39;;;;;;;1.67;0.90;;;19.30;54.90;;;;;;5037984;28;20124;-67
2023/10/19 03:54:40;;;;;;;1.40;0.90;;;19.30;54.90;;;;;;5036360;28;20041;-66
2023/10/19 03:57:12;;;;;;;1.30;0.90;;;19.30;54.90;;;;;;5036350;28;20037;-66
2023/10/19 03:59:41;;;;;;;1.17;0.90;;;19.30;54.90;;;;;;5036716;28;20041;-66
2023/10/19 04:02:20;;;;;;;1.55;1.00;;;19.30;54.90;;;;;;5039518;28;20112;-66
2023/10/19 04:04:48;;;;;;;1.45;0.90;;;19.30;54.90;;;;;;5038440;28;20033;-66
2023/10/19 04:07:20;;;;;;;1.67;1.05;;;19.30;54.90;;;;;;5038464;28;20041;-66
2023/10/19 04:12:25;;;;;;;1.23;0.90;;;19.30;55.00;;;;;;5037336;28;20033;-66
2023/10/19 04:14:51;;;;;;;1.45;0.82;;;19.30;54.90;;;;;;5039794;28;20511;-66
2023/10/19 04:17:20;;;;;;;1.35;0.85;;;19.30;55.00;;;;;;5036696;28;20093;-67
2023/10/19 04:19:48;;;;;;;1.60;0.80;;;19.30;55.00;;;;;;5037464;28;20130;-67
2023/10/19 04:22:22;;;;;;;2.05;1.00;;;19.30;55.00;;;;;;5039742;28;20481;-67
2023/10/19 04:24:48;;;;;;;1.45;0.90;;;19.30;55.00;;;;;;5040377;28;20048;-67
2023/10/19 04:27:14;;;;;;;1.45;0.90;;;19.30;55.00;;;;;;5040964;28;20111;-67
2023/10/19 04:29:43;;;;;;;1.40;1.00;;;19.30;55.00;;;;;;5040121;28;20025;-66
2023/10/19 04:32:14;;;;;;;2.15;1.10;;;19.30;55.00;;;;;;5042015;28;20037;-63
2023/10/19 04:34:40;;;;;;;1.98;1.20;;;19.30;55.10;;;;;;5044372;28;20029;-62
2023/10/19 04:37:06;;;;;;;1.55;1.13;;;19.30;55.20;;;;;;5040685;28;20051;-62
2023/10/19 04:39:34;;;;;;;2.15;1.30;;;19.20;55.10;;;;;;5040432;28;20021;-62
2023/10/19 04:42:00;;;;;;;1.80;1.10;;;19.30;55.30;;;;;;5041018;28;20039;-67
2023/10/19 04:44:25;;;;;;;2.28;1.23;;;19.30;55.40;;;;;;5039654;28;20548;-66
2023/10/19 04:46:51;;;;;;;1.60;1.20;;;19.30;55.30;;;;;;5041716;28;20045;-66
2023/10/19 04:49:16;;;;;;;3.42;1.30;;;19.30;55.40;;;;;;5041593;28;20025;-66
2023/10/19 04:51:43;;;;;;;1.60;1.20;;;19.20;55.40;;;;;;5041056;28;20036;-66
2023/10/19 04:54:09;;;;;;;1.88;1.20;;;19.30;55.50;;;;;;5040736;28;20410;-66
2023/10/19 04:56:36;;;;;;;1.50;1.08;;;19.30;55.50;;;;;;5038643;28;20061;-66
2023/10/19 04:59:04;;;;;;;1.77;1.20;;;19.20;55.50;;;;;;5040253;28;20106;-66
2023/10/19 05:01:33;;;;;;;1.90;1.15;;;19.30;55.50;;;;;;5041080;28;20025;-66
2023/10/19 05:03:59;;;;;;;1.95;1.20;;;19.30;55.50;;;;;;5040262;28;20057;-66
2023/10/19 05:06:25;;;;;;;1.90;1.30;;;19.30;55.50;;;;;;5041154;28;20130;-67
2023/10/19 05:08:52;;;;;;;1.38;1.00;;;19.30;55.60;;;;;;5041631;28;20029;-68
2023/10/19 05:11:17;;;;;;;2.22;1.10;;;19.30;55.50;;;;;;5038045;28;20048;-66
2023/10/19 05:13:43;;;;;;;1.88;1.10;;;19.30;55.50;;;;;;5041606;28;20106;-66
2023/10/19 05:16:08;;;;;;;2.50;1.30;;;19.30;55.50;;;;;;5041606;28;20040;-65
2023/10/19 05:18:34;;;;;;;2.10;1.40;;;19.30;55.50;;;;;;5040933;28;20025;-65
2023/10/19 05:21:00;;;;;;;1.65;1.08;;;19.20;55.40;;;;;;5041524;28;20034;-65
2023/10/19 05:23:30;;;;;;;2.22;1.10;;;19.30;56.00;;;;;;5040059;28;20026;-65
2023/10/19 05:26:02;;;;;;;;;;;19.30;55.50;;;;;;5040376;28;20033;-66
2023/10/19 05:28:28;;;;;;;1.55;1.02;;;19.20;55.50;;;;;;5040610;28;20345;-66
2023/10/19 05:30:54;;;;;;;2.17;1.20;;;19.30;55.50;;;;;;5039436;28;20028;-66
2023/10/19 05:33:23;;;;;;;2.45;1.30;;;19.30;55.50;;;;;;5040892;28;20541;-66
2023/10/19 05:35:50;;;;;;;2.08;1.20;;;19.30;55.50;;;;;;5038708;28;20033;-65
2023/10/19 05:38:16;;;;;;;1.67;1.10;;;19.30;55.50;;;;;;5041266;28;20083;-66
2023/10/19 05:40:43;;;;;;;2.55;1.30;;;19.30;55.50;;;;;;5038091;28;20041;-66
2023/10/19 05:43:09;;;;;;;2.00;1.10;;;19.30;55.50;;;;;;5038172;28;20367;-66
2023/10/19 05:45:36;;;;;;;1.80;1.10;;;19.30;55.50;;;;;;5040613;28;20106;-65
2023/10/19 05:48:03;;;;;;;1.55;1.00;;;19.30;55.50;;;;;;5039005;28;20032;-65
2023/10/19 05:50:29;;;;;;;2.28;1.20;;;19.30;55.50;;;;;;5038110;28;20029;-65
2023/10/19 05:52:55;;;;;;;1.88;1.10;;;19.20;55.50;;;;;;5040007;28;20048;-63
2023/10/19 05:55:24;;;;;;;1.73;1.10;;;19.30;55.60;;;;;;5038307;28;20053;-62
2023/10/19 05:57:49;;;;;;;2.15;1.10;;;19.20;55.50;;;;;;5040558;28;20035;-62
2023/10/19 06:00:16;;;;;;;1.90;1.20;;;19.20;55.50;;;;;;5039419;28;20405;-62
2023/10/19 06:02:46;;;;;;;2.15;1.30;;;19.30;55.60;;;;;;5040917;28;20438;-62
2023/10/19 06:05:15;;;;;;;1.40;1.00;;;19.20;55.50;;;;;;5038749;28;20025;-63
2023/10/19 06:07:48;;;;;;;3.13;1.20;;;19.30;55.50;;;;;;5038049;28;20041;-62
2023/10/19 06:10:17;;;;;;;2.13;1.08;;;19.30;55.60;;;;;;5038149;28;20038;-61
2023/10/19 06:12:47;;;;;;;2.10;1.35;;;19.30;55.50;;;;;;5037539;28;20112;-65
2023/10/19 06:15:15;;;;;;;1.63;1.10;;;19.20;55.50;;;;;;5039496;28;20063;-65
2023/10/19 06:17:42;;;;;;;1.70;1.10;;;19.30;55.60;;;;;;5039572;28;20033;-65
2023/10/19 06:20:19;;;;;;;1.70;1.13;;;19.20;55.60;;;;;;5046630;28;20029;-66
2023/10/19 06:22:50;;;;;;;2.38;1.30;;;19.20;55.60;;;;;;5038640;28;20416;-66
2023/10/19 06:25:21;;;;;;;1.38;0.93;;;19.20;55.50;;;;;;5038690;28;20097;-65
2023/10/19 06:27:47;;;;;;;2.00;1.10;;;19.30;55.60;;;;;;5038903;28;20037;-65
2023/10/19 06:30:18;;;;;;;2.03;1.13;;;19.20;55.50;;;;;;5037259;28;20041;-65
2023/10/19 06:32:52;;;;;;;1.60;1.00;;;19.30;55.50;;;;;;5038919;28;20032;-65
2023/10/19 06:35:19;;;;;;;1.60;1.00;;;19.30;55.60;;;;;;5039907;28;20119;-65
2023/10/19 06:37:45;;;;;;;1.85;1.10;;;19.30;55.60;;;;;;5039265;28;20531;-65
2023/10/19 06:40:12;;;;;;;1.80;1.10;;;19.30;55.60;;;;;;5036154;28;20033;-65
2023/10/19 06:42:39;;;;;;;1.75;1.15;;;19.20;55.60;;;;;;5037668;28;20504;-66
2023/10/19 06:45:05;;;;;;;1.65;1.13;;;19.30;55.60;;;;;;5040691;28;20063;-66
2023/10/19 06:47:30;;;;;;;1.70;1.10;;;19.30;55.60;;;;;;5041490;28;20469;-65
2023/10/19 06:49:56;;;;;;;1.50;1.00;;;19.20;55.50;;;;;;5036333;28;20140;-65
2023/10/19 06:52:22;;;;;;;1.27;1.00;;;19.20;55.50;;;;;;5037972;28;20100;-66
2023/10/19 06:54:48;;;;;;;1.30;1.00;;;19.30;55.60;;;;;;5039312;28;20133;-65
2023/10/19 06:57:14;;;;;;;1.33;1.00;;;19.30;55.50;;;;;;5036581;28;20544;-65
2023/10/19 06:59:39;;;;;;;1.48;1.00;;;19.20;55.50;;;;;;5039700;28;20064;-65
2023/10/19 07:02:07;;;;;;;1.58;1.02;;;19.30;55.60;;;;;;5037352;28;20052;-65
2023/10/19 07:04:33;;;;;;;2.00;1.08;;;19.20;55.50;;;;;;5038855;28;20373;-65
2023/10/19 07:07:00;;;;;;;1.92;1.10;;;19.30;55.60;;;;;;5038192;28;20091;-65
2023/10/19 07:09:26;;;;;;;2.13;1.10;;;19.30;55.50;;;;;;5038431;28;20453;-65
2023/10/19 07:11:54;;;;;;;2.03;1.10;;;19.20;55.40;;;;;;5037726;28;20061;-65
2023/10/19 07:14:22;;;;;;;1.50;1.10;;;19.20;55.50;;;;;;5038522;28;20031;-65
2023/10/19 07:16:49;;;;;;;1.70;1.02;;;19.20;55.50;;;;;;5036524;28;20119;-65
2023/10/19 07:19:14;;;;;;;1.80;1.08;;;19.30;55.50;;;;;;5038058;28;20080;-65
2023/10/19 07:21:42;;;;;;;1.45;1.00;;;19.20;55.50;;;;;;5036835;28;20473;-65
2023/10/19 07:24:11;;;;;;;2.03;1.10;;;19.20;55.50;;;;;;5038109;28;20025;-66
2023/10/19 07:26:53;;;;;;;1.75;1.10;;;19.20;55.40;;;;;;5035781;28;20459;-66
2023/10/19 07:29:20;;;;;;;2.20;1.00;;;19.20;55.40;;;;;;5038048;28;20060;-66
2023/10/19 07:31:46;;;;;;;1.38;1.00;;;19.20;55.50;;;;;;5038347;28;20036;-66
2023/10/19 07:34:15;;;;;;;1.40;1.10;;;19.20;55.40;;;;;;5039016;28;20111;-65
2023/10/19 07:36:42;;;;;;;1.83;1.20;;;19.20;55.50;;;;;;5037235;28;20071;-66
2023/10/19 07:39:13;;;;;;;2.38;1.08;;;19.20;55.50;;;;;;5037766;28;20045;-66
2023/10/19 07:41:40;;;;;;;1.48;0.93;;;19.20;55.50;;;;;;5034965;28;20437;-66
2023/10/19 07:44:06;;;;;;;1.98;1.30;;;19.20;55.50;;;;;;5021788;28;20489;-66
2023/10/19 07:46:31;;;;;;;2.05;1.27;;;19.20;55.40;;;;;;5038423;28;20072;-66
2023/10/19 07:48:59;;;;;;;1.58;1.08;;;19.20;55.50;;;;;;5036931;28;20473;-66
2023/10/19 07:51:25;;;;;;;1.67;1.13;;;19.20;55.50;;;;;;5036948;28;20108;-66
2023/10/19 07:53:51;;;;;;;1.90;1.20;;;19.20;55.40;;;;;;5037405;28;20128;-66
2023/10/19 07:56:17;;;;;;;1.50;1.00;;;19.20;55.40;;;;;;5036845;28;20102;-66
2023/10/19 07:58:43;;;;;;;1.83;1.10;;;19.20;55.40;;;;;;5040987;28;20033;-66
2023/10/19 08:01:08;;;;;;;1.52;1.00;;;19.20;55.50;;;;;;5042345;28;20024;-66
2023/10/19 08:03:35;;;;;;;1.48;0.90;;;19.20;55.40;;;;;;5042292;28;20049;-66
2023/10/19 08:06:00;;;;;;;1.55;1.10;;;19.20;55.50;;;;;;5042361;28;20021;-65
2023/10/19 08:08:33;;;;;;;1.60;1.10;;;19.20;55.50;;;;;;5039990;28;20539;-66
2023/10/19 08:10:59;;;;;;;1.48;1.00;;;19.30;55.50;;;;;;5037856;28;20017;-66
2023/10/19 08:13:26;;;;;;;1.70;1.02;;;19.20;55.40;;;;;;5040813;28;20037;-69
2023/10/19 08:15:51;;;;;;;1.70;1.08;;;19.20;55.40;;;;;;5041324;28;20860;-68
2023/10/19 08:18:18;;;;;;;1.63;1.00;;;19.20;55.40;;;;;;5041741;28;20036;-68
2023/10/19 08:20:45;;;;;;;0.95;0.85;;;19.20;55.40;;;;;;5042155;28;20131;-69
2023/10/19 08:23:13;;;;;;;1.73;1.10;;;19.20;55.40;;;;;;5039316;28;20473;-69
2023/10/19 08:25:39;;;;;;;1.45;1.00;;;19.20;55.40;;;;;;5041422;28;20021;-68
2023/10/19 08:28:06;;;;;;;1.10;0.90;;;19.20;55.40;;;;;;5039788;28;20033;-69
2023/10/19 08:30:34;;;;;;;1.65;1.00;;;19.20;55.40;;;;;;5039848;28;20017;-69
2023/10/19 08:32:59;;;;;;;1.38;0.90;;;19.20;55.40;;;;;;5040880;28;20384;-69
2023/10/19 08:35:26;;;;;;;2.05;1.10;;;19.20;55.50;;;;;;5042417;28;20029;-68
2023/10/19 08:37:53;;;;;;;1.45;1.10;;;19.20;55.50;;;;;;5040165;28;20556;-69
2023/10/19 08:40:21;;;;;;;1.35;1.05;;;19.20;55.50;;;;;;5042188;28;20013;-68
2023/10/19 08:42:48;;;;;;;1.30;0.90;;;19.20;55.50;;;;;;5039754;28;20557;-69
2023/10/19 08:45:16;;;;;;;1.45;1.08;;;19.20;55.50;;;;;;5043160;28;20420;-69
2023/10/19 08:47:56;;;;;;;1.45;1.02;;;19.20;55.40;;;;;;5039258;28;20021;-69
2023/10/19 08:50:24;;;;;;;1.23;0.85;;;19.20;55.50;;;;;;5041890;28;20041;-69
2023/10/19 08:52:53;;;;;;;2.28;1.13;;;19.20;55.40;;;;;;5040760;28;20038;-69
2023/10/19 08:55:19;;;;;;;;;;;19.20;55.40;;;;;;5040421;28;20029;-69
2023/10/19 08:57:48;;;;;;;2.00;1.20;;;19.20;55.40;;;;;;5039952;28;19920;-69
2023/10/19 09:00:18;;;;;;;1.92;1.08;;;19.20;55.40;;;;;;5040685;28;20493;-69
2023/10/19 09:02:43;;;;;;;;;;;19.20;55.40;;;;;;5040670;28;20021;-69
2023/10/19 09:05:19;;;;;;;1.33;0.95;;;19.20;55.50;;;;;;5041153;28;20376;-69
2023/10/19 09:07:47;;;;;;;1.65;1.00;;;19.20;55.40;;;;;;5040325;28;20032;-68
2023/10/19 09:10:16;;;;;;;1.80;1.05;;;19.20;55.40;;;;;;5039423;28;20104;-68
2023/10/19 09:12:42;;;;;;;2.13;1.10;;;19.20;55.40;;;;;;5039341;28;20038;-68
2023/10/19 09:15:22;;;;;;;1.38;1.00;;;19.20;55.90;;;;;;5039600;28;20485;-68
2023/10/19 09:17:49;;;;;;;1.45;1.05;;;19.20;55.40;;;;;;5040974;28;20481;-67
2023/10/19 09:20:18;;;;;;;1.70;0.98;;;19.20;55.40;;;;;;5040758;28;20052;-67
2023/10/19 09:22:44;;;;;;;1.60;0.95;;;19.20;55.50;;;;;;5039474;28;20032;-66
2023/10/19 09:25:10;;;;;;;1.08;0.95;;;19.20;55.50;;;;;;5039680;28;20030;-67
2023/10/19 09:27:35;;;;;;;1.63;1.02;;;19.20;55.40;;;;;;5040592;28;20048;-67
2023/10/19 09:30:05;;;;;;;1.50;1.10;;;19.20;55.40;;;;;;5039792;28;20029;-67
2023/10/19 09:32:35;;;;;;;1.45;1.00;;;19.20;55.50;;;;;;5040409;28;20037;-67
2023/10/19 09:35:02;;;;;;;2.00;0.98;;;19.20;55.40;;;;;;5038750;28;20527;-66
2023/10/19 09:37:29;;;;;;;1.75;1.00;;;19.20;55.40;;;;;;5041168;28;20342;-67
2023/10/19 09:39:56;;;;;;;1.42;0.95;;;19.20;55.40;;;;;;5038672;28;20051;-67
2023/10/19 09:42:23;;;;;;;1.20;0.90;;;19.20;56.00;;;;;;5037508;28;20035;-67
2023/10/19 09:44:59;;;;;;;1.50;1.05;;;19.20;55.40;;;;;;5039997;28;20029;-67
2023/10/19 09:47:35;;;;;;;1.17;0.95;;;19.20;55.40;;;;;;5056540;28;20037;-67
2023/10/19 09:50:06;;;;;;;1.38;0.90;;;19.20;55.40;;;;;;5038523;28;20457;-67
2023/10/19 09:52:33;;;;;;;1.60;1.02;;;19.20;55.40;;;;;;5040737;28;20028;-68
2023/10/19 09:55:25;;;;;;;1.67;1.00;;;19.20;55.40;;;;;;5039903;28;20033;-67
2023/10/19 09:58:07;;;;;;;1.50;1.00;;;19.20;55.40;;;;;;5070729;28;20072;-67
2023/10/19 10:00:34;;;;;;;1.17;0.98;;;19.20;55.40;;;;;;5038935;28;20092;-67
2023/10/19 10:03:02;;;;;;;1.70;1.20;;;19.20;55.40;;;;;;5040430;28;20039;-67
2023/10/19 10:05:43;;;;;;;1.90;1.00;;;19.20;55.40;;;;;;5039852;28;20529;-66
2023/10/19 10:08:18;;;;;;;1.30;0.98;;;19.20;55.40;;;;;;5039053;28;20029;-66
2023/10/19 10:10:48;;;;;;;1.52;1.00;;;19.20;55.40;;;;;;5039853;28;20025;-66
2023/10/19 10:13:34;;;;;;;1.58;1.05;;;19.20;55.40;;;;;;5040662;28;20028;-66
2023/10/19 10:16:06;;;;;;;2.03;0.95;;;19.20;55.40;;;;;;5039288;28;20030;-66
2023/10/19 10:18:34;;;;;;;1.55;1.00;;;19.20;55.40;;;;;;5040459;28;20101;-66
2023/10/19 10:21:16;;;;;;;1.50;0.90;;;19.20;55.40;;;;;;5038611;28;20024;-66
2023/10/19 10:23:48;;;;;;;1.48;1.00;;;19.20;55.40;;;;;;5039789;28;20021;-67
2023/10/19 10:26:16;;;;;;;1.98;1.08;;;19.20;55.40;;;;;;5038965;28;20168;-67
2023/10/19 10:28:47;;;;;;;1.60;1.10;;;19.20;55.40;;;;;;5039459;28;20025;-68
2023/10/19 10:31:21;;;;;;;1.67;1.10;;;19.20;55.40;;;;;;5039663;28;20481;-68
2023/10/19 10:33:51;;;;;;;1.52;1.00;;;19.20;55.40;;;;;;5040241;28;20483;-68
2023/10/19 10:36:18;;;;;;;1.42;1.00;;;19.20;55.40;;;;;;5038142;28;20073;-67
2023/10/19 10:38:46;;;;;;;1.35;0.98;;;19.20;55.40;;;;;;5037758;28;20448;-68
2023/10/19 10:41:12;;;;;;;2.28;1.20;;;19.20;55.40;;;;;;5040130;28;20548;-67
2023/10/19 10:43:55;;;;;;;1.42;0.93;;;19.20;55.40;;;;;;5036659;28;20025;-67
2023/10/19 10:46:27;;;;;;;1.50;0.98;;;19.20;55.40;;;;;;5040314;28;20025;-68
2023/10/19 10:48:53;;;;;;;2.00;1.05;;;19.20;55.40;;;;;;5039207;28;20013;-68
2023/10/19 10:51:28;;;;;;;1.50;0.98;;;19.20;55.40;;;;;;5037629;28;20029;-67
2023/10/19 10:53:54;;;;;;;1.55;1.00;;;19.20;55.40;;;;;;5037650;28;20169;-62
2023/10/19 10:56:23;;;;;;;1.50;0.98;;;19.20;55.40;;;;;;5038154;28;20069;-63
2023/10/19 10:58:50;;;;;;;3.17;1.10;;;19.20;55.40;;;;;;5035874;28;20063;-64
2023/10/19 11:01:29;;;;;;;1.30;0.90;;;19.20;55.40;;;;;;5037195;28;20118;-62
2023/10/19 11:04:08;;;;;;;;;;;19.20;55.40;;;;;;5037832;28;20031;-65
2023/10/19 11:06:49;;;;;;;1.17;0.90;;;19.20;55.50;;;;;;5037205;28;19932;-63
2023/10/19 11:09:18;;;;;;;1.35;0.93;;;19.20;55.40;;;;;;5036230;28;20043;-63
2023/10/19 11:11:45;;;;;;;1.40;1.00;;;19.20;55.40;;;;;;5039363;28;20022;-64
2023/10/19 11:14:11;;;;;;;1.60;1.00;;;19.20;55.40;;;;;;5037208;28;20117;-63
2023/10/19 11:16:39;;;;;;;2.58;1.00;;;19.20;55.40;;;;;;5039417;28;20116;-66
2023/10/19 11:19:05;;;;;;;1.42;0.95;;;19.20;55.50;;;;;;5038632;28;20109;-62
2023/10/19 11:21:30;;;;;;;2.33;1.00;;;19.30;55.50;;;;;;5039024;28;20103;-63
2023/10/19 11:23:56;;;;;;;1.80;1.05;;;19.20;55.40;;;;;;5038499;28;20060;-63
2023/10/19 11:26:26;;;;;;;2.08;1.30;;;19.20;55.50;;;;;;5037708;28;20044;-62
2023/10/19 11:29:01;;;;;;;;;;;19.20;55.50;;;;;;5037349;28;20021;-62
2023/10/19 11:31:27;;;;;;;2.53;1.35;;;19.20;55.50;;;;;;5036923;28;20461;-63
2023/10/19 11:33:58;;;;;;;2.05;1.20;;;19.30;55.50;;;;;;5037782;28;20028;-68
2023/10/19 11:36:24;;;;;;;2.13;1.40;;;19.20;55.50;;;;;;5037766;28;20109;-68
2023/10/19 11:38:51;;;;;;;2.95;1.58;;;19.30;55.50;;;;;;5037805;28;20022;-67
2023/10/19 11:41:17;;;;;;;3.17;1.60;;;19.30;55.50;;;;;;5036865;28;20052;-68
2023/10/19 11:43:45;;;;;;;3.55;1.70;;;19.20;55.50;;;;;;5036280;28;20033;-68
2023/10/19 11:46:11;;;;;;;3.60;1.58;;;19.20;55.50;;;;;;5044073;28;20060;-68
2023/10/19 11:48:39;;;;;;;3.08;1.50;;;19.30;55.50;;;;;;5037912;28;20036;-68
2023/10/19 11:51:05;;;;;;;5.65;1.70;;;19.20;55.50;;;;;;5040097;28;20017;-69
2023/10/19 11:53:33;;;;;;;4.68;2.00;;;19.20;55.50;;;;;;5039613;28;20088;-69
2023/10/19 11:56:04;;;;;;;4.50;2.17;;;19.30;55.60;;;;;;5038181;28;20021;-68
2023/10/19 11:58:32;;;;;;;4.28;2.00;;;19.20;55.50;;;;;;5037699;28;20026;-69
2023/10/19 12:00:58;;;;;;;4.97;2.35;;;19.30;55.60;;;;;;5037004;28;20327;-69
2023/10/19 12:03:25;;;;;;;4.43;2.15;;;19.30;55.60;;;;;;5035977;28;20040;-68
2023/10/19 12:05:53;;;;;;;6.50;2.83;;;19.30;55.60;;;;;;5035704;28;20832;-68
2023/10/19 12:08:19;;;;;;;5.32;2.50;;;19.30;55.60;;;;;;5038395;28;20091;-68
2023/10/19 12:10:44;;;;;;;4.88;2.45;;;19.30;55.60;;;;;;5038108;28;20029;-68
2023/10/19 12:13:10;;;;;;;6.35;2.83;;;19.30;55.70;;;;;;5037390;28;20037;-68
2023/10/19 12:15:36;;;;;;;6.15;2.55;;;19.30;55.60;;;;;;5035719;28;20037;-68
2023/10/19 12:18:03;;;;;;;5.40;2.80;;;19.30;55.70;;;;;;5034908;28;20070;-68
2023/10/19 12:20:31;;;;;;;6.90;3.03;;;19.30;55.80;;;;;;5039236;28;20029;-68
2023/10/19 12:22:57;;;;;;;5.80;3.17;;;19.30;55.70;;;;;;5039228;28;20570;-68
2023/10/19 12:25:28;;;;;;;6.13;2.90;;;19.30;55.70;;;;;;5037442;28;20074;-69
2023/10/19 12:27:54;;;;;;;6.95;2.80;;;19.30;55.70;;;;;;5036593;28;20036;-68
2023/10/19 12:30:21;;;;;;;7.15;3.10;;;19.30;55.70;;;;;;5036595;28;20422;-68
2023/10/19 12:32:51;;;;;;;7.88;3.20;;;19.30;55.80;;;;;;5037041;28;20118;-68
2023/10/19 12:35:19;;;;;;;;;;;19.30;55.70;;;;;;5037766;28;20041;-68
2023/10/19 12:37:51;;;;;;;8.30;3.20;;;19.30;55.80;;;;;;5037553;28;20328;-69
2023/10/19 12:40:26;;;;;;;6.90;3.10;;;19.30;55.70;;;;;;5038041;28;20053;-68
2023/10/19 12:42:54;;;;;;;7.50;2.97;;;19.30;55.70;;;;;;5036781;28;20405;-66
2023/10/19 12:45:24;;;;;;;5.55;2.65;;;19.30;55.70;;;;;;5039973;28;20063;-66
2023/10/19 12:47:51;;;;;;;6.70;3.13;;;19.30;55.70;;;;;;5040338;28;20029;-66
2023/10/19 12:50:22;;;;;;;6.75;3.58;;;19.30;55.80;;;;;;5042287;28;20962;-66
2023/10/19 12:52:49;;;;;;;7.28;3.17;;;19.30;55.70;;;;;;5039326;28;20358;-63
2023/10/19 12:55:16;;;;;;;8.45;3.47;;;19.30;55.70;;;;;;5040585;28;20558;-67
2023/10/19 12:57:42;;;;;;;6.38;3.28;;;19.30;55.70;;;;;;5040568;28;20386;-66
2023/10/19 13:00:23;;;;;;;8.65;3.72;;;19.30;55.70;;;;;;5040858;28;20028;-66
2023/10/19 13:02:50;;;;;;;6.88;3.50;;;19.30;55.70;;;;;;5041942;28;20028;-66
2023/10/19 13:05:18;;;;;;;7.35;3.33;;;19.30;55.70;;;;;;5039693;28;20029;-67
2023/10/19 13:07:44;;;;;;;9.20;3.45;;;19.30;55.70;;;;;;5040977;28;20180;-67
2023/10/19 13:10:11;;;;;;;7.63;3.72;;;19.30;55.70;;;;;;5042644;28;20025;-67
2023/10/19 13:12:37;;;;;;;8.35;3.40;;;19.30;55.70;;;;;;5040546;28;20037;-66
2023/10/19 13:15:07;;;;;;;8.90;3.40;;;19.30;55.70;;;;;;5040580;28;20040;-61
2023/10/19 13:17:34;;;;;;;6.90;3.38;;;19.30;55.80;;;;;;5040636;28;20025;-61
2023/10/19 13:20:01;;;;;;;6.75;3.80;;;19.30;55.80;;;;;;5042201;28;20028;-62